Time;durP1;ratioP1;P1;durP2;ratioP2;P2;SDS_P1;SDS_P2;PMS_P1;PMS_P2;Temp;Humidity;BMP_temperature;BMP_pressure;BME280_temperature;BME280_humidity;BME280_pressure;Samples;Min_cycle;Max_cycle;Signal;HPM_P1;HPM_P2
2023/09/06 00:00:32;;;;;;;9.20;3.90;;;;;;;;;;5011500;28;20132;-71
2023/09/06 00:02:58;;;;;;;8.95;3.80;;;;;;;;;;5011328;28;20021;-70
2023/09/06 00:05:23;;;;;;;9.63;3.75;;;;;;;;;;5011377;28;20072;-70
2023/09/06 00:07:49;;;;;;;14.55;4.30;;;;;;;;;;5011095;28;20141;-69
2023/09/06 00:10:17;;;;;;;9.13;4.10;;;;;;;;;;5011705;28;20026;-68
2023/09/06 00:12:42;;;;;;;7.82;4.15;;;;;;;;;;5011299;28;20026;-69
2023/09/06 00:15:08;;;;;;;9.35;3.92;;;;;;;;;;5011328;28;20029;-70
2023/09/06 00:17:37;;;;;;;11.23;4.07;;;;;;;;;;5010735;28;20394;-67
2023/09/06 00:20:09;;;;;;;12.18;4.30;;;;;;;;;;5000613;28;20124;-67
2023/09/06 00:22:35;;;;;;;7.05;4.28;;;;;;;;;;5011307;28;20045;-68
2023/09/06 00:25:00;;;;;;;8.10;4.18;;;;;;;;;;5011279;28;20061;-70
2023/09/06 00:27:25;;;;;;;7.60;3.97;;;;;;;;;;5010770;28;20026;-67
2023/09/06 00:29:50;;;;;;;9.38;3.67;;;;;;;;;;5025973;28;20467;-70
2023/09/06 00:32:16;;;;;;;12.32;4.03;;;;;;;;;;5011196;28;20068;-70
2023/09/06 00:39:52;;;;;;;9.25;4.90;;;;;;;;;;5031318;28;20099;-67
2023/09/06 00:42:18;;;;;;;9.63;4.63;;;;;;;;;;5032245;28;20471;-67
2023/09/06 00:44:43;;;;;;;9.90;4.40;;;;;;;;;;5032524;28;20040;-67
2023/09/06 00:47:09;;;;;;;10.50;4.10;;;;;;;;;;5031456;28;20028;-62
2023/09/06 00:49:34;;;;;;;7.72;3.88;;;;;;;;;;5031976;28;20017;-66
2023/09/06 00:51:59;;;;;;;11.13;4.45;;;;;;;;;;5032363;28;20021;-66
2023/09/06 00:54:24;;;;;;;7.03;3.72;;;;;;;;;;5032775;28;20009;-67
2023/09/06 00:56:50;;;;;;;12.82;3.88;;;;;;;;;;5032079;28;20499;-67
2023/09/06 00:59:16;;;;;;;9.48;4.07;;;;;;;;;;5032510;28;20512;-67
2023/09/06 01:01:41;;;;;;;8.25;4.60;;;;;;;;;;5032021;28;20248;-65
2023/09/06 01:04:06;;;;;;;9.77;4.18;;;;;;;;;;5031561;28;20336;-67
2023/09/06 01:06:32;;;;;;;7.55;4.47;;;;;;;;;;5031136;28;20057;-67
2023/09/06 01:08:58;;;;;;;9.65;4.75;;;;;;;;;;5031640;28;20105;-67
2023/09/06 01:11:25;;;;;;;8.00;3.80;;;;;;;;;;5030652;28;20101;-67
2023/09/06 01:13:52;;;;;;;10.23;4.50;;;;;;;;;;5030667;28;20013;-68
2023/09/06 01:16:23;;;;;;;9.13;4.28;;;;;;;;;;5031522;28;20029;-66
2023/09/06 01:18:48;;;;;;;8.23;4.47;;;;;;;;;;5031550;28;20017;-68
2023/09/06 01:21:15;;;;;;;12.02;4.63;;;;;;;;;;5031852;28;20395;-67
2023/09/06 01:23:41;;;;;;;9.77;4.43;;;;;;;;;;5031359;28;20083;-68
2023/09/06 01:26:06;;;;;;;7.65;4.55;;;;;;;;;;5031161;28;20044;-65
2023/09/06 01:28:32;;;;;;;10.40;4.90;;;;;;;;;;5021207;28;20056;-67
2023/09/06 01:30:59;;;;;;;9.25;4.55;;;;;;;;;;5025181;28;20100;-67
2023/09/06 01:33:25;;;;;;;11.45;4.68;;;;;;;;;;5029404;28;20494;-68
2023/09/06 01:35:50;;;;;;;7.95;4.72;;;;;;;;;;5031497;28;20029;-67
2023/09/06 01:38:16;;;;;;;10.60;4.43;;;;;;;;;;5031966;28;20036;-63
2023/09/06 01:40:44;;;;;;;13.35;4.88;;;;;;;;;;5032239;28;20478;-66
2023/09/06 01:43:09;;;;;;;11.63;4.60;;;;;;;;;;5032230;28;20029;-66
2023/09/06 01:45:36;;;;;;;9.35;4.70;;;;;;;;;;5031607;28;20106;-66
2023/09/06 01:48:03;;;;;;;10.63;4.75;;;;;;;;;;5031013;28;20063;-68
2023/09/06 01:50:28;;;;;;;12.23;4.35;;;;;;;;;;5031127;28;20022;-62
2023/09/06 01:52:55;;;;;;;8.55;4.60;;;;;;;;;;5031202;28;20029;-66
2023/09/06 01:55:21;;;;;;;12.02;4.50;;;;;;;;;;5031272;28;20017;-66
2023/09/06 01:57:46;;;;;;;11.68;5.07;;;;;;;;;;5031021;28;20021;-63
2023/09/06 02:00:27;;;;;;;11.77;4.97;;;;;;;;;;5031311;28;20340;-66
2023/09/06 02:02:52;;;;;;;8.95;5.20;;;;;;;;;;5031751;28;20403;-66
2023/09/06 02:05:17;;;;;;;11.60;4.55;;;;;;;;;;5030593;28;20028;-65
2023/09/06 02:07:46;;;;;;;13.82;4.90;;;;;;;;;;5030415;28;20028;-66
2023/09/06 02:10:11;;;;;;;9.35;4.20;;;;;;;;;;5031788;28;20021;-66
2023/09/06 02:12:37;;;;;;;9.38;4.93;;;;;;;;;;5031099;28;20041;-66
2023/09/06 02:15:05;;;;;;;8.43;4.72;;;;;;;;;;5031129;28;20121;-66
2023/09/06 02:17:30;;;;;;;12.55;5.57;;;;;;;;;;5029761;28;20071;-65
2023/09/06 02:19:55;;;;;;;9.60;4.97;;;;;;;;;;5030545;28;20029;-65
2023/09/06 02:22:21;;;;;;;14.32;5.63;;;;;;;;;;5030311;28;20018;-65
2023/09/06 02:24:46;;;;;;;9.50;5.07;;;;;;;;;;5030872;28;20032;-66
2023/09/06 02:27:12;;;;;;;11.38;5.25;;;;;;;;;;5030524;28;20017;-66
2023/09/06 02:29:38;;;;;;;17.50;5.07;;;;;;;;;;5021589;28;20100;-65
2023/09/06 02:32:03;;;;;;;8.55;5.05;;;;;;;;;;5023310;28;20097;-67
2023/09/06 02:34:28;;;;;;;13.57;4.82;;;;;;;;;;5025650;28;20091;-66
2023/09/06 02:36:53;;;;;;;10.02;5.32;;;;;;;;;;5024945;28;20394;-67
2023/09/06 02:39:19;;;;;;;14.15;5.25;;;;;;;;;;5030284;28;20035;-63
2023/09/06 02:41:46;;;;;;;13.48;6.82;;;;;;;;;;5030010;28;20025;-66
2023/09/06 02:44:12;;;;;;;12.07;5.80;;;;;;;;;;5030276;28;20144;-66
2023/09/06 02:46:38;;;;;;;10.32;5.60;;;;;;;;;;5029418;28;20049;-66
2023/09/06 02:49:12;;;;;;;12.80;6.57;;;;;;;;;;5030101;28;20095;-66
2023/09/06 02:51:43;;;;;;;10.25;5.45;;;;;;;;;;5031052;28;20394;-67
2023/09/06 02:54:12;;;;;;;13.05;5.63;;;;;;;;;;5030198;28;20101;-65
2023/09/06 02:56:37;;;;;;;19.67;7.68;;;;;;;;;;5029396;28;20025;-67
2023/09/06 02:59:12;;;;;;;13.93;5.95;;;;;;;;;;5029679;28;20029;-67
2023/09/06 03:01:44;;;;;;;12.68;5.72;;;;;;;;;;5029593;28;20299;-67
2023/09/06 03:04:10;;;;;;;15.18;5.88;;;;;;;;;;5029829;28;20021;-68
2023/09/06 03:06:37;;;;;;;14.60;6.25;;;;;;;;;;5029316;28;20017;-67
2023/09/06 03:09:06;;;;;;;11.63;5.43;;;;;;;;;;5029911;28;20079;-65
2023/09/06 03:11:32;;;;;;;13.65;6.35;;;;;;;;;;5029483;28;20160;-64
2023/09/06 03:13:58;;;;;;;9.20;5.18;;;;;;;;;;5030199;28;20109;-67
2023/09/06 03:16:23;;;;;;;11.70;5.53;;;;;;;;;;5029467;28;20164;-65
2023/09/06 03:18:53;;;;;;;12.13;5.90;;;;;;;;;;5027972;28;20014;-65
2023/09/06 03:21:18;;;;;;;12.77;6.30;;;;;;;;;;5029602;28;20465;-65
2023/09/06 03:23:44;;;;;;;10.27;5.57;;;;;;;;;;5030242;28;20029;-64
2023/09/06 03:26:10;;;;;;;16.20;6.28;;;;;;;;;;5029704;28;20044;-67
2023/09/06 03:28:37;;;;;;;11.70;5.68;;;;;;;;;;5018646;28;20014;-65
2023/09/06 03:31:02;;;;;;;9.65;5.70;;;;;;;;;;5025206;28;20470;-64
2023/09/06 03:33:28;;;;;;;10.75;6.15;;;;;;;;;;5033299;28;20075;-66
2023/09/06 03:35:53;;;;;;;12.65;6.13;;;;;;;;;;5024187;28;20036;-62
2023/09/06 03:38:20;;;;;;;11.10;6.78;;;;;;;;;;5036505;28;20504;-67
2023/09/06 03:40:45;;;;;;;12.93;6.88;;;;;;;;;;5037643;28;20022;-67
2023/09/06 03:43:19;;;;;;;13.55;6.38;;;;;;;;;;5036591;28;20028;-64
2023/09/06 03:45:53;;;;;;;15.82;6.07;;;;;;;;;;5036228;28;20490;-64
2023/09/06 03:48:20;;;;;;;11.50;5.88;;;;;;;;;;5033965;28;20033;-67
2023/09/06 03:50:48;;;;;;;11.23;6.20;;;;;;;;;;5036482;28;20291;-63
2023/09/06 03:53:15;;;;;;;10.35;6.10;;;;;;;;;;5036163;28;20092;-63
2023/09/06 03:55:41;;;;;;;13.38;5.90;;;;;;;;;;5035970;28;20390;-67
2023/09/06 03:58:07;;;;;;;11.98;6.70;;;;;;;;;;5035355;28;20041;-66
2023/09/06 04:00:32;;;;;;;10.30;6.45;;;;;;;;;;5036449;28;20083;-67
2023/09/06 04:02:57;;;;;;;12.38;6.45;;;;;;;;;;5036188;28;20021;-67
2023/09/06 04:05:25;;;;;;;15.30;6.57;;;;;;;;;;5036671;28;20471;-68
2023/09/06 04:08:03;;;;;;;15.55;7.80;;;;;;;;;;5033925;28;20025;-67
2023/09/06 04:10:35;;;;;;;13.13;6.75;;;;;;;;;;5036056;28;20021;-67
2023/09/06 04:13:00;;;;;;;15.95;7.63;;;;;;;;;;5035972;28;20021;-67
2023/09/06 04:15:26;;;;;;;14.55;6.68;;;;;;;;;;5035263;28;20024;-62
2023/09/06 04:17:58;;;;;;;14.90;6.97;;;;;;;;;;5034795;28;20550;-66
2023/09/06 04:20:30;;;;;;;14.15;6.40;;;;;;;;;;5035441;28;20398;-68
2023/09/06 04:22:56;;;;;;;12.93;7.50;;;;;;;;;;5035626;28;20021;-67
2023/09/06 04:25:22;;;;;;;14.85;6.68;;;;;;;;;;5035832;28;20021;-68
2023/09/06 04:27:48;;;;;;;11.52;6.43;;;;;;;;;;5033969;28;20021;-66
2023/09/06 04:30:17;;;;;;;10.18;6.63;;;;;;;;;;5024187;28;20099;-66
2023/09/06 04:32:44;;;;;;;19.05;7.88;;;;;;;;;;5031021;28;20021;-67
2023/09/06 04:35:09;;;;;;;13.93;7.32;;;;;;;;;;5035383;28;20036;-67
2023/09/06 04:37:35;;;;;;;10.75;6.80;;;;;;;;;;5035103;28;20017;-68
2023/09/06 04:40:00;;;;;;;16.60;6.80;;;;;;;;;;5035313;28;20096;-66
2023/09/06 04:42:26;;;;;;;13.35;6.60;;;;;;;;;;5035233;28;20045;-68
2023/09/06 04:44:51;;;;;;;16.63;7.28;;;;;;;;;;5034126;28;20045;-68
2023/09/06 04:47:17;;;;;;;12.48;7.03;;;;;;;;;;5032248;28;20112;-68
2023/09/06 04:49:45;;;;;;;13.35;7.00;;;;;;;;;;5030129;28;20018;-68
2023/09/06 04:52:10;;;;;;;12.97;6.17;;;;;;;;;;5032457;28;20026;-64
2023/09/06 04:54:35;;;;;;;13.77;6.78;;;;;;;;;;5032381;28;20018;-67
2023/09/06 04:57:00;;;;;;;12.88;6.35;;;;;;;;;;5031670;28;20048;-68
2023/09/06 04:59:26;;;;;;;12.93;6.53;;;;;;;;;;5032215;28;20048;-68
2023/09/06 05:01:51;;;;;;;12.77;7.35;;;;;;;;;;5027169;28;20024;-68
2023/09/06 05:04:19;;;;;;;11.13;6.18;;;;;;;;;;5025913;28;20056;-67
2023/09/06 05:06:44;;;;;;;21.20;6.20;;;;;;;;;;5018709;28;20088;-68
2023/09/06 05:09:10;;;;;;;11.65;6.93;;;;;;;;;;5034351;28;20013;-67
2023/09/06 05:11:35;;;;;;;11.55;6.90;;;;;;;;;;5019611;28;20024;-67
2023/09/06 05:14:00;;;;;;;13.50;6.45;;;;;;;;;;5026617;28;20026;-68
2023/09/06 05:16:26;;;;;;;15.43;6.90;;;;;;;;;;5030602;28;20037;-66
2023/09/06 05:18:52;;;;;;;15.73;6.43;;;;;;;;;;5029797;28;20032;-67
2023/09/06 05:21:18;;;;;;;16.30;6.85;;;;;;;;;;5018914;28;20030;-66
2023/09/06 05:23:43;;;;;;;12.30;6.47;;;;;;;;;;5031951;28;20138;-66
2023/09/06 05:26:10;;;;;;;14.27;6.50;;;;;;;;;;5030778;28;20042;-63
2023/09/06 05:28:35;;;;;;;12.40;6.75;;;;;;;;;;5027323;28;20089;-68
2023/09/06 05:31:01;;;;;;;16.55;6.97;;;;;;;;;;5035403;28;20010;-66
2023/09/06 05:33:26;;;;;;;14.90;6.03;;;;;;;;;;5037648;28;20017;-65
2023/09/06 05:35:53;;;;;;;10.15;5.75;;;;;;;;;;5032589;28;20108;-67
2023/09/06 05:38:19;;;;;;;14.63;6.90;;;;;;;;;;5032596;28;20083;-65
2023/09/06 05:40:45;;;;;;;15.75;6.60;;;;;;;;;;5031400;28;20017;-68
2023/09/06 05:43:10;;;;;;;12.85;6.40;;;;;;;;;;5029780;28;20036;-66
2023/09/06 05:45:35;;;;;;;12.95;5.80;;;;;;;;;;5031000;28;20478;-68
2023/09/06 05:48:00;;;;;;;10.85;6.45;;;;;;;;;;5030571;28;20017;-68
2023/09/06 05:50:27;;;;;;;10.23;5.88;;;;;;;;;;5031382;28;20398;-62
2023/09/06 05:52:53;;;;;;;9.90;5.65;;;;;;;;;;5031702;28;20029;-66
2023/09/06 05:55:18;;;;;;;10.82;5.50;;;;;;;;;;5031042;28;20013;-64
2023/09/06 05:57:44;;;;;;;13.85;6.18;;;;;;;;;;5030320;28;20498;-67
2023/09/06 06:00:21;;;;;;;9.80;5.65;;;;;;;;;;5030887;28;20014;-65
2023/09/06 06:02:48;;;;;;;12.80;6.35;;;;;;;;;;5030416;28;20471;-67
2023/09/06 06:05:14;;;;;;;13.23;5.60;;;;;;;;;;5030445;28;20017;-66
2023/09/06 06:07:40;;;;;;;13.88;5.72;;;;;;;;;;5030032;28;20374;-65
2023/09/06 06:10:06;;;;;;;14.52;6.38;;;;;;;;;;5030994;28;20020;-67
2023/09/06 06:12:32;;;;;;;12.88;6.07;;;;;;;;;;5030764;28;20537;-67
2023/09/06 06:15:00;;;;;;;11.68;5.82;;;;;;;;;;5030958;28;20036;-66
2023/09/06 06:17:25;;;;;;;9.73;5.60;;;;;;;;;;5032325;28;20021;-68
2023/09/06 06:19:50;;;;;;;9.05;4.95;;;;;;;;;;5029843;28;20109;-66
2023/09/06 06:22:15;;;;;;;10.45;5.50;;;;;;;;;;5030150;28;20063;-67
2023/09/06 06:24:42;;;;;;;13.05;5.30;;;;;;;;;;5030438;28;20060;-67
2023/09/06 06:27:07;;;;;;;12.25;5.57;;;;;;;;;;5029946;28;20180;-65
2023/09/06 06:29:32;;;;;;;9.82;4.75;;;;;;;;;;5018851;28;20445;-67
2023/09/06 06:31:57;;;;;;;11.77;5.95;;;;;;;;;;5025161;28;20088;-63
2023/09/06 06:34:24;;;;;;;21.05;5.88;;;;;;;;;;5029818;28;20096;-67
2023/09/06 06:36:49;;;;;;;14.50;5.38;;;;;;;;;;5029803;28;20617;-65
2023/09/06 06:39:14;;;;;;;12.10;5.43;;;;;;;;;;5042574;23;20037;-70
2023/09/06 06:41:40;;;;;;;14.88;5.90;;;;;;;;;;5028866;28;20055;-70
2023/09/06 06:44:05;;;;;;;12.98;5.00;;;;;;;;;;5028568;28;20018;-69
2023/09/06 06:46:32;;;;;;;16.98;4.63;;;;;;;;;;5028622;28;20037;-70
2023/09/06 06:48:58;;;;;;;19.10;5.55;;;;;;;;;;5015218;28;20025;-68
2023/09/06 06:51:26;;;;;;;13.80;5.18;;;;;;;;;;5029004;28;20013;-71
2023/09/06 06:53:51;;;;;;;10.23;5.15;;;;;;;;;;5029178;28;20045;-71
2023/09/06 06:56:21;;;;;;;11.45;5.30;;;;;;;;;;5028701;28;20435;-70
2023/09/06 06:58:47;;;;;;;11.80;4.95;;;;;;;;;;5028199;28;20465;-70
2023/09/06 07:01:13;;;;;;;8.50;4.63;;;;;;;;;;5029422;28;20026;-67
2023/09/06 07:03:38;;;;;;;15.85;4.90;;;;;;;;;;5028575;28;20024;-67
2023/09/06 07:06:03;;;;;;;10.10;4.45;;;;;;;;;;5027958;28;20376;-67
2023/09/06 07:08:30;;;;;;;8.18;4.25;;;;;;;;;;5027759;28;20100;-71
2023/09/06 07:10:55;;;;;;;9.30;4.40;;;;;;;;;;5028724;28;20096;-69
2023/09/06 07:13:21;;;;;;;7.97;4.05;;;;;;;;;;5028319;28;20069;-69
2023/09/06 07:15:46;;;;;;;12.02;4.13;;;;;;;;;;5026720;28;20028;-70
2023/09/06 07:18:12;;;;;;;9.95;4.25;;;;;;;;;;5027849;28;20072;-71
2023/09/06 07:20:38;;;;;;;10.75;3.78;;;;;;;;;;5028813;28;20068;-68
2023/09/06 07:23:03;;;;;;;8.60;4.38;;;;;;;;;;5027828;28;20395;-70
2023/09/06 07:25:29;;;;;;;8.10;3.50;;;;;;;;;;5028364;28;20644;-71
2023/09/06 07:27:54;;;;;;;12.95;4.63;;;;;;;;;;5025510;28;20431;-70
2023/09/06 07:30:19;;;;;;;9.35;3.83;;;;;;;;;;5017639;28;20017;-70
2023/09/06 07:32:44;;;;;;;8.07;3.90;;;;;;;;;;5026926;28;20029;-70
2023/09/06 07:35:09;;;;;;;8.35;3.85;;;;;;;;;;5028177;28;20022;-67
2023/09/06 07:37:35;;;;;;;6.90;3.60;;;;;;;;;;5028054;28;20023;-71
2023/09/06 07:40:00;;;;;;;15.73;4.20;;;;;;;;;;5028096;28;20524;-70
2023/09/06 07:42:25;;;;;;;16.20;3.47;;;;;;;;;;5028141;28;20093;-70
2023/09/06 07:44:51;;;;;;;8.63;3.80;;;;;;;;;;5026742;28;20018;-70
2023/09/06 07:47:17;;;;;;;15.48;4.45;;;;;;;;;;5028351;28;20022;-69
2023/09/06 07:49:42;;;;;;;12.30;4.72;;;;;;;;;;5028547;28;20045;-69
2023/09/06 07:52:08;;;;;;;10.65;4.00;;;;;;;;;;5027054;28;20029;-70
2023/09/06 07:54:33;;;;;;;9.07;4.28;;;;;;;;;;5028157;28;20021;-69
2023/09/06 07:56:59;;;;;;;9.63;4.25;;;;;;;;;;5027900;28;20078;-68
2023/09/06 07:59:24;;;;;;;8.15;3.67;;;;;;;;;;5028184;28;20037;-70
2023/09/06 08:01:49;;;;;;;7.80;3.83;;;;;;;;;;5028167;28;20021;-69
2023/09/06 08:04:15;;;;;;;9.10;3.63;;;;;;;;;;5022742;28;20271;-69
2023/09/06 08:06:40;;;;;;;8.30;3.78;;;;;;;;;;5026323;28;20151;-69
2023/09/06 08:09:05;;;;;;;9.85;3.53;;;;;;;;;;5027869;28;20336;-67
2023/09/06 08:11:30;;;;;;;12.60;3.33;;;;;;;;;;5023211;28;20475;-69
2023/09/06 08:13:56;;;;;;;6.68;3.38;;;;;;;;;;5019997;28;20103;-67
2023/09/06 08:16:22;;;;;;;7.40;3.35;;;;;;;;;;5027528;28;20036;-69
2023/09/06 08:18:47;;;;;;;7.03;3.50;;;;;;;;;;5027416;28;20478;-67
2023/09/06 08:21:13;;;;;;;7.00;2.90;;;;;;;;;;5029827;28;20608;-68
2023/09/06 08:23:39;;;;;;;9.02;3.40;;;;;;;;;;5031228;28;20036;-68
2023/09/06 08:26:04;;;;;;;11.18;3.35;;;;;;;;;;5031466;28;20025;-68
2023/09/06 08:28:29;;;;;;;6.15;2.92;;;;;;;;;;5029387;28;20017;-67
2023/09/06 08:30:54;;;;;;;7.68;3.50;;;;;;;;;;5026380;28;20056;-68
2023/09/06 08:33:20;;;;;;;6.32;3.30;;;;;;;;;;5027960;28;20079;-68
2023/09/06 08:35:45;;;;;;;9.73;3.43;;;;;;;;;;5031290;28;20025;-66
2023/09/06 08:38:10;;;;;;;8.40;3.45;;;;;;;;;;5030758;28;20614;-69
2023/09/06 08:40:36;;;;;;;6.95;3.13;;;;;;;;;;5031245;28;20041;-69
2023/09/06 08:43:02;;;;;;;6.97;3.47;;;;;;;;;;5031339;28;20216;-70
2023/09/06 08:45:29;;;;;;;7.85;3.20;;;;;;;;;;5030765;28;20025;-70
2023/09/06 08:47:54;;;;;;;14.02;3.83;;;;;;;;;;5030938;28;20049;-67
2023/09/06 08:50:19;;;;;;;8.25;3.20;;;;;;;;;;5030124;28;20033;-69
2023/09/06 08:52:45;;;;;;;8.18;3.55;;;;;;;;;;5030887;28;20041;-68
2023/09/06 08:55:11;;;;;;;14.65;3.85;;;;;;;;;;5031027;28;20013;-68
2023/09/06 08:57:37;;;;;;;11.35;3.40;;;;;;;;;;5031271;28;20017;-67
2023/09/06 09:00:03;;;;;;;16.73;3.72;;;;;;;;;;5030501;28;20053;-70
2023/09/06 09:02:28;;;;;;;6.10;3.05;;;;;;;;;;5030376;28;20100;-68
2023/09/06 09:04:54;;;;;;;8.57;3.10;;;;;;;;;;5029466;28;20152;-69
2023/09/06 09:07:19;;;;;;;6.90;3.33;;;;;;;;;;5029599;28;20049;-71
2023/09/06 09:09:56;;;;;;;6.68;3.42;;;;;;;;;;5029281;28;20017;-70
2023/09/06 09:12:23;;;;;;;8.73;3.20;;;;;;;;;;5029921;28;20041;-69
2023/09/06 09:14:48;;;;;;;7.50;3.80;;;;;;;;;;5030411;28;20021;-68
2023/09/06 09:17:13;;;;;;;6.72;3.13;;;;;;;;;;5030253;28;20394;-69
2023/09/06 09:19:38;;;;;;;9.30;3.23;;;;;;;;;;5030415;28;20732;-69
2023/09/06 09:22:07;;;;;;;10.48;3.17;;;;;;;;;;5030441;28;20257;-70
2023/09/06 09:24:32;;;;;;;7.47;2.92;;;;;;;;;;5030287;28;20032;-71
2023/09/06 09:26:57;;;;;;;15.75;3.40;;;;;;;;;;5029483;28;20390;-67
2023/09/06 09:29:23;;;;;;;7.80;3.00;;;;;;;;;;5021412;28;20471;-67
2023/09/06 09:31:48;;;;;;;9.68;2.90;;;;;;;;;;5023524;28;20083;-69
2023/09/06 09:34:14;;;;;;;8.45;2.90;;;;;;;;;;5029038;28;20022;-70
2023/09/06 09:36:39;;;;;;;10.35;3.15;;;;;;;;;;5029857;28;20021;-69
2023/09/06 09:39:08;;;;;;;8.32;3.17;;;;;;;;;;5029985;28;20033;-68
2023/09/06 09:41:33;;;;;;;7.95;2.75;;;;;;;;;;5030307;28;20032;-67
2023/09/06 09:44:14;;;;;;;6.85;2.67;;;;;;;;;;5030065;28;20029;-70
2023/09/06 09:46:43;;;;;;;5.65;2.78;;;;;;;;;;5028863;28;20025;-69
2023/09/06 09:49:10;;;;;;;5.70;2.85;;;;;;;;;;5029894;28;20021;-70
2023/09/06 09:51:36;;;;;;;10.25;5.50;;;;;;;;;;5029859;28;20025;-70
2023/09/06 09:54:02;;;;;;;9.93;2.95;;;;;;;;;;5029752;28;20375;-70
2023/09/06 09:56:28;;;;;;;6.10;2.67;;;;;;;;;;5029765;28;20037;-69
2023/09/06 09:58:54;;;;;;;10.00;4.35;;;;;;;;;;5029625;28;20048;-70
2023/09/06 10:01:20;;;;;;;6.18;2.78;;;;;;;;;;5028674;28;20120;-71
2023/09/06 10:03:46;;;;;;;7.18;3.30;;;;;;;;;;5029340;28;20044;-70
2023/09/06 10:06:12;;;;;;;11.82;2.92;;;;;;;;;;5029607;28;20040;-68
2023/09/06 10:08:38;;;;;;;7.35;3.10;;;;;;;;;;5029935;28;20475;-69
2023/09/06 10:11:05;;;;;;;6.30;2.60;;;;;;;;;;5029654;28;20064;-70
2023/09/06 10:13:31;;;;;;;6.97;2.80;;;;;;;;;;5030019;28;20515;-69
2023/09/06 10:15:57;;;;;;;7.65;2.83;;;;;;;;;;5027885;28;20461;-69
2023/09/06 10:18:22;;;;;;;8.82;2.80;;;;;;;;;;5030092;28;20387;-69
2023/09/06 10:20:47;;;;;;;11.55;3.00;;;;;;;;;;5029418;28;20112;-68
2023/09/06 10:23:13;;;;;;;7.40;3.08;;;;;;;;;;5029556;28;20051;-70
2023/09/06 10:25:43;;;;;;;6.20;3.05;;;;;;;;;;5029307;28;20029;-69
2023/09/06 10:28:08;;;;;;;5.28;2.47;;;;;;;;;;5026518;28;20042;-68
2023/09/06 10:30:43;;;;;;;6.13;2.92;;;;;;;;;;5019338;28;20052;-71
2023/09/06 10:33:09;;;;;;;7.70;2.70;;;;;;;;;;5029139;28;20028;-71
2023/09/06 10:35:40;;;;;;;7.88;3.03;;;;;;;;;;5028804;28;20021;-69
2023/09/06 10:38:07;;;;;;;6.25;2.63;;;;;;;;;;5028974;28;20018;-68
2023/09/06 10:40:48;;;;;;;5.85;2.78;;;;;;;;;;5028721;28;20075;-69
2023/09/06 10:43:13;;;;;;;5.93;2.50;;;;;;;;;;5030346;28;20100;-68
2023/09/06 10:45:39;;;;;;;6.32;2.47;;;;;;;;;;5028671;28;20108;-71
2023/09/06 10:48:11;;;;;;;8.02;3.00;;;;;;;;;;5043702;28;20120;-70
2023/09/06 10:50:37;;;;;;;9.13;2.88;;;;;;;;;;5029142;28;20044;-71
2023/09/06 10:53:02;;;;;;;4.93;2.70;;;;;;;;;;5028849;28;20355;-67
2023/09/06 10:55:30;;;;;;;14.95;3.55;;;;;;;;;;5028664;28;20029;-68
2023/09/06 10:58:02;;;;;;;13.10;3.33;;;;;;;;;;5028208;28;20463;-69
2023/09/06 11:00:31;;;;;;;7.65;2.72;;;;;;;;;;5028321;28;20454;-69
2023/09/06 11:03:06;;;;;;;8.27;3.35;;;;;;;;;;5029080;28;20025;-70
2023/09/06 11:05:38;;;;;;;11.70;2.88;;;;;;;;;;5028512;28;20025;-69
2023/09/06 11:08:04;;;;;;;14.48;3.70;;;;;;;;;;5027653;28;20017;-71
2023/09/06 11:10:30;;;;;;;8.35;2.75;;;;;;;;;;5028539;28;20152;-70
2023/09/06 11:12:55;;;;;;;8.23;2.60;;;;;;;;;;5028616;28;20025;-67
2023/09/06 11:15:21;;;;;;;7.07;3.00;;;;;;;;;;5028129;28;20091;-70
2023/09/06 11:17:47;;;;;;;6.60;2.83;;;;;;;;;;5028060;28;20429;-70
2023/09/06 11:20:13;;;;;;;7.57;2.75;;;;;;;;;;5028806;28;20024;-71
2023/09/06 11:22:51;;;;;;;6.03;3.08;;;;;;;;;;5027818;28;20104;-71
2023/09/06 11:25:20;;;;;;;4.85;2.42;;;;;;;;;;5028333;28;20022;-68
2023/09/06 11:27:46;;;;;;;8.35;3.22;;;;;;;;;;5023887;28;20135;-71
2023/09/06 11:30:16;;;;;;;6.35;2.90;;;;;;;;;;5020210;28;20079;-71
2023/09/06 11:32:44;;;;;;;7.07;2.78;;;;;;;;;;5025990;28;20013;-70
2023/09/06 11:35:10;;;;;;;9.10;4.05;;;;;;;;;;5028642;28;20032;-68
2023/09/06 11:37:37;;;;;;;15.23;4.30;;;;;;;;;;5028466;28;20022;-70
2023/09/06 11:40:13;;;;;;;5.53;2.80;;;;;;;;;;5023904;28;20379;-71
2023/09/06 11:42:40;;;;;;;10.75;3.40;;;;;;;;;;5029048;28;20478;-71
2023/09/06 11:45:06;;;;;;;10.88;2.80;;;;;;;;;;5028245;28;20525;-72
2023/09/06 11:47:32;;;;;;;6.40;2.83;;;;;;;;;;5023789;28;20043;-70
2023/09/06 11:50:02;;;;;;;8.20;3.15;;;;;;;;;;5023823;28;20022;-69
2023/09/06 11:52:30;;;;;;;9.07;2.95;;;;;;;;;;5028174;28;20419;-71
2023/09/06 11:54:56;;;;;;;5.93;2.63;;;;;;;;;;5030297;28;20021;-70
2023/09/06 11:57:30;;;;;;;5.57;2.60;;;;;;;;;;5031797;28;20104;-70
2023/09/06 12:00:00;;;;;;;12.35;3.13;;;;;;;;;;5031838;28;20119;-71
2023/09/06 12:02:26;;;;;;;8.45;2.80;;;;;;;;;;5032272;28;20025;-70
2023/09/06 12:05:03;;;;;;;8.48;4.05;;;;;;;;;;5031901;28;20022;-68
2023/09/06 12:07:29;;;;;;;5.95;3.17;;;;;;;;;;5030183;28;20033;-71
2023/09/06 12:09:58;;;;;;;6.22;2.80;;;;;;;;;;5031321;28;20500;-69
2023/09/06 12:12:26;;;;;;;5.90;3.22;;;;;;;;;;5031643;28;20021;-67
2023/09/06 12:14:51;;;;;;;6.95;2.72;;;;;;;;;;5031075;28;20025;-68
2023/09/06 12:17:20;;;;;;;10.38;2.85;;;;;;;;;;5030661;28;20055;-69
2023/09/06 12:19:45;;;;;;;10.20;3.03;;;;;;;;;;5031555;28;20389;-69
2023/09/06 12:22:17;;;;;;;10.63;2.83;;;;;;;;;;5031387;28;20036;-70
2023/09/06 12:24:45;;;;;;;5.72;2.78;;;;;;;;;;5031367;28;20037;-71
2023/09/06 12:27:14;;;;;;;8.85;2.92;;;;;;;;;;5030769;28;20144;-69
2023/09/06 12:29:39;;;;;;;8.32;2.70;;;;;;;;;;5020409;28;20014;-68
2023/09/06 12:32:05;;;;;;;6.90;2.97;;;;;;;;;;5023908;28;20033;-67
2023/09/06 12:34:30;;;;;;;12.98;2.97;;;;;;;;;;5031410;28;20277;-69
2023/09/06 12:36:55;;;;;;;10.83;2.90;;;;;;;;;;5029048;28;20053;-71
2023/09/06 12:39:21;;;;;;;7.85;3.05;;;;;;;;;;5032275;28;20301;-69
2023/09/06 12:41:47;;;;;;;8.98;2.90;;;;;;;;;;5031428;28;20120;-71
2023/09/06 12:44:13;;;;;;;9.40;2.90;;;;;;;;;;5032407;28;20021;-70
2023/09/06 12:46:38;;;;;;;12.82;2.80;;;;;;;;;;5028836;28;20036;-70
2023/09/06 12:49:04;;;;;;;19.90;2.72;;;;;;;;;;5031630;28;20024;-67
2023/09/06 12:51:29;;;;;;;6.10;2.80;;;;;;;;;;5030018;28;20071;-70
2023/09/06 12:53:54;;;;;;;7.77;2.80;;;;;;;;;;5031394;28;20099;-67
2023/09/06 12:56:19;;;;;;;8.00;4.00;;;;;;;;;;5030495;28;20334;-70
2023/09/06 12:58:45;;;;;;;11.90;2.83;;;;;;;;;;5030328;28;20273;-69
2023/09/06 13:01:10;;;;;;;8.65;2.60;;;;;;;;;;5030274;28;20013;-71
2023/09/06 13:03:35;;;;;;;4.57;2.45;;;;;;;;;;5029590;28;20076;-70
2023/09/06 13:06:01;;;;;;;7.78;2.42;;;;;;;;;;5030116;28;20022;-69
2023/09/06 13:08:26;;;;;;;5.97;2.65;;;;;;;;;;5029641;28;20033;-67
2023/09/06 13:10:51;;;;;;;6.60;2.72;;;;;;;;;;5031488;28;20018;-69
2023/09/06 13:13:16;;;;;;;4.85;2.80;;;;;;;;;;5031303;28;20052;-70
2023/09/06 13:15:42;;;;;;;8.13;3.20;;;;;;;;;;5029312;28;20029;-70
2023/09/06 13:18:07;;;;;;;9.52;2.50;;;;;;;;;;5029185;28;20263;-71
2023/09/06 13:20:33;;;;;;;8.90;3.40;;;;;;;;;;5030973;28;20024;-69
2023/09/06 13:22:58;;;;;;;7.80;2.70;;;;;;;;;;5029957;28;20475;-70
2023/09/06 13:25:23;;;;;;;7.30;2.90;;;;;;;;;;5029772;28;20053;-68
2023/09/06 13:27:48;;;;;;;7.85;3.00;;;;;;;;;;5028534;28;20239;-70
2023/09/06 13:30:14;;;;;;;8.47;3.43;;;;;;;;;;5018591;28;20037;-71
2023/09/06 13:32:39;;;;;;;6.38;2.97;;;;;;;;;;5027436;28;20255;-69
2023/09/06 13:35:05;;;;;;;5.72;2.60;;;;;;;;;;5031469;28;20018;-69
2023/09/06 13:37:32;;;;;;;7.85;3.15;;;;;;;;;;5029881;28;20029;-70
2023/09/06 13:39:57;;;;;;;6.10;2.50;;;;;;;;;;5030260;28;20410;-69
2023/09/06 13:42:23;;;;;;;9.73;2.67;;;;;;;;;;5028226;28;20025;-68
2023/09/06 13:44:48;;;;;;;11.13;2.45;;;;;;;;;;5030337;28;20064;-70
2023/09/06 13:47:16;;;;;;;5.93;3.30;;;;;;;;;;5029418;28;20026;-68
2023/09/06 13:49:42;;;;;;;7.38;2.85;;;;;;;;;;5030448;28;20079;-69
2023/09/06 13:52:08;;;;;;;13.40;2.75;;;;;;;;;;5029061;28;20041;-69
2023/09/06 13:54:33;;;;;;;13.77;2.78;;;;;;;;;;5028630;28;20076;-68
2023/09/06 13:56:58;;;;;;;5.28;2.75;;;;;;;;;;5029929;28;20128;-71
2023/09/06 13:59:24;;;;;;;11.18;3.08;;;;;;;;;;5029571;28;20091;-70
2023/09/06 14:01:49;;;;;;;5.68;2.97;;;;;;;;;;5027539;28;20026;-70
2023/09/06 14:04:14;;;;;;;8.45;2.88;;;;;;;;;;5029907;28;20083;-68
2023/09/06 14:06:40;;;;;;;14.32;2.95;;;;;;;;;;5029054;28;20029;-69
2023/09/06 14:09:08;;;;;;;6.25;2.70;;;;;;;;;;5029288;28;20073;-70
2023/09/06 14:11:33;;;;;;;;;;;;;;;;;;5030220;28;20032;-70
2023/09/06 14:13:58;;;;;;;6.05;3.05;;;;;;;;;;5030217;28;20319;-69
2023/09/06 14:16:23;;;;;;;6.28;2.55;;;;;;;;;;5029264;28;20025;-70
2023/09/06 14:18:48;;;;;;;11.90;2.40;;;;;;;;;;5028791;28;20025;-70
2023/09/06 14:21:20;;;;;;;12.90;3.53;;;;;;;;;;5028951;28;20509;-68
2023/09/06 14:23:45;;;;;;;5.32;2.50;;;;;;;;;;5028712;28;20340;-72
2023/09/06 14:26:10;;;;;;;6.40;2.90;;;;;;;;;;5029077;28;20034;-71
2023/09/06 14:28:35;;;;;;;8.35;2.42;;;;;;;;;;5027374;28;20029;-71
2023/09/06 14:31:01;;;;;;;6.37;2.80;;;;;;;;;;5022985;28;20114;-68
2023/09/06 14:33:26;;;;;;;6.32;2.80;;;;;;;;;;5024836;28;20418;-71
2023/09/06 14:35:51;;;;;;;5.83;2.57;;;;;;;;;;5028946;28;20024;-68